sensor_id;sensor_type;location;lat;lon;timestamp;temperature;humidity
18998;DHT22;9632;51.018;4.284;2024-02-21T00:00:35;11.50;99.90
18998;DHT22;9632;51.018;4.284;2024-02-21T00:03:00;11.40;99.90
18998;DHT22;9632;51.018;4.284;2024-02-21T00:05:27;11.40;99.90
18998;DHT22;9632;51.018;4.284;2024-02-21T00:07:53;11.40;99.90
18998;DHT22;9632;51.018;4.284;2024-02-21T00:10:19;11.50;99.90
18998;DHT22;9632;51.018;4.284;2024-02-21T00:12:44;11.50;99.90
18998;DHT22;9632;51.018;4.284;2024-02-21T00:15:10;11.40;99.90
18998;DHT22;9632;51.018;4.284;2024-02-21T00:17:36;11.40;99.90
18998;DHT22;9632;51.018;4.284;2024-02-21T00:20:01;11.50;99.90
18998;DHT22;9632;51.018;4.284;2024-02-21T00:22:27;11.50;99.90
18998;DHT22;9632;51.018;4.284;2024-02-21T00:24:54;11.50;99.90
18998;DHT22;9632;51.018;4.284;2024-02-21T00:27:20;11.40;99.90
18998;DHT22;9632;51.018;4.284;2024-02-21T00:29:45;11.50;99.90
18998;DHT22;9632;51.018;4.284;2024-02-21T00:32:11;11.40;99.90
18998;DHT22;9632;51.018;4.284;2024-02-21T00:34:37;11.40;99.90
18998;DHT22;9632;51.018;4.284;2024-02-21T00:37:02;11.40;99.90
18998;DHT22;9632;51.018;4.284;2024-02-21T00:39:28;11.40;99.90
18998;DHT22;9632;51.018;4.284;2024-02-21T00:41:53;11.30;99.90
18998;DHT22;9632;51.018;4.284;2024-02-21T00:44:19;11.20;99.90
18998;DHT22;9632;51.018;4.284;2024-02-21T00:46:45;11.30;99.90
18998;DHT22;9632;51.018;4.284;2024-02-21T00:49:11;11.30;99.90
18998;DHT22;9632;51.018;4.284;2024-02-21T00:51:37;11.30;99.90
18998;DHT22;9632;51.018;4.284;2024-02-21T00:54:03;11.30;99.90
18998;DHT22;9632;51.018;4.284;2024-02-21T00:56:29;11.30;99.90
18998;DHT22;9632;51.018;4.284;2024-02-21T00:58:55;11.30;99.90
18998;DHT22;9632;51.018;4.284;2024-02-21T01:01:23;11.30;99.90
18998;DHT22;9632;51.018;4.284;2024-02-21T01:03:49;11.30;99.90
18998;DHT22;9632;51.018;4.284;2024-02-21T01:06:15;11.30;99.90
18998;DHT22;9632;51.018;4.284;2024-02-21T01:08:40;11.30;99.90
18998;DHT22;9632;51.018;4.284;2024-02-21T01:11:11;11.30;99.90
18998;DHT22;9632;51.018;4.284;2024-02-21T01:13:37;11.30;99.90
18998;DHT22;9632;51.018;4.284;2024-02-21T01:16:03;11.30;99.90
18998;DHT22;9632;51.018;4.284;2024-02-21T01:18:28;11.30;99.90
18998;DHT22;9632;51.018;4.284;2024-02-21T01:20:54;11.30;99.90
18998;DHT22;9632;51.018;4.284;2024-02-21T01:23:20;11.20;99.90
18998;DHT22;9632;51.018;4.284;2024-02-21T01:25:45;11.30;99.90
18998;DHT22;9632;51.018;4.284;2024-02-21T01:28:11;11.30;99.90
18998;DHT22;9632;51.018;4.284;2024-02-21T01:30:36;11.30;99.90
18998;DHT22;9632;51.018;4.284;2024-02-21T01:33:02;11.20;99.90
18998;DHT22;9632;51.018;4.284;2024-02-21T01:35:29;11.20;99.90
18998;DHT22;9632;51.018;4.284;2024-02-21T01:37:54;11.20;99.90
18998;DHT22;9632;51.018;4.284;2024-02-21T01:40:20;11.20;99.90
18998;DHT22;9632;51.018;4.284;2024-02-21T01:42:45;11.10;99.90
18998;DHT22;9632;51.018;4.284;2024-02-21T01:45:13;11.10;99.90
18998;DHT22;9632;51.018;4.284;2024-02-21T01:47:39;11.10;99.90
18998;DHT22;9632;51.018;4.284;2024-02-21T01:50:05;11.10;99.90
18998;DHT22;9632;51.018;4.284;2024-02-21T01:52:31;11.10;99.90
18998;DHT22;9632;51.018;4.284;2024-02-21T01:54:57;11.00;99.90
18998;DHT22;9632;51.018;4.284;2024-02-21T01:57:24;11.00;99.90
18998;DHT22;9632;51.018;4.284;2024-02-21T01:59:50;11.00;99.90
18998;DHT22;9632;51.018;4.284;2024-02-21T02:02:15;10.90;99.90
18998;DHT22;9632;51.018;4.284;2024-02-21T02:04:42;10.90;99.90
18998;DHT22;9632;51.018;4.284;2024-02-21T02:07:08;10.90;99.90
18998;DHT22;9632;51.018;4.284;2024-02-21T02:09:34;10.90;99.90
18998;DHT22;9632;51.018;4.284;2024-02-21T02:12:00;10.90;99.90
18998;DHT22;9632;51.018;4.284;2024-02-21T02:14:26;10.90;99.90
18998;DHT22;9632;51.018;4.284;2024-02-21T02:16:52;10.90;99.90
18998;DHT22;9632;51.018;4.284;2024-02-21T02:19:18;10.90;99.90
18998;DHT22;9632;51.018;4.284;2024-02-21T02:21:49;10.90;99.90
18998;DHT22;9632;51.018;4.284;2024-02-21T02:24:19;10.90;99.90
18998;DHT22;9632;51.018;4.284;2024-02-21T02:26:45;10.90;99.90
18998;DHT22;9632;51.018;4.284;2024-02-21T02:29:11;10.90;99.90
18998;DHT22;9632;51.018;4.284;2024-02-21T02:31:37;11.00;99.90
18998;DHT22;9632;51.018;4.284;2024-02-21T02:34:03;11.00;99.90
18998;DHT22;9632;51.018;4.284;2024-02-21T02:36:32;11.00;99.90
18998;DHT22;9632;51.018;4.284;2024-02-21T02:38:59;10.90;99.90
18998;DHT22;9632;51.018;4.284;2024-02-21T02:41:24;10.90;99.90
18998;DHT22;9632;51.018;4.284;2024-02-21T02:43:50;11.00;99.90
18998;DHT22;9632;51.018;4.284;2024-02-21T02:46:16;10.90;99.90
18998;DHT22;9632;51.018;4.284;2024-02-21T02:48:41;10.90;99.90
18998;DHT22;9632;51.018;4.284;2024-02-21T02:51:07;10.90;99.90
18998;DHT22;9632;51.018;4.284;2024-02-21T02:53:33;10.90;99.90
18998;DHT22;9632;51.018;4.284;2024-02-21T02:55:58;10.90;99.90
18998;DHT22;9632;51.018;4.284;2024-02-21T02:58:24;10.90;99.90
18998;DHT22;9632;51.018;4.284;2024-02-21T03:00:50;10.90;99.90
18998;DHT22;9632;51.018;4.284;2024-02-21T03:03:16;11.00;99.90
18998;DHT22;9632;51.018;4.284;2024-02-21T03:05:41;11.00;99.90
18998;DHT22;9632;51.018;4.284;2024-02-21T03:08:07;11.00;99.90
18998;DHT22;9632;51.018;4.284;2024-02-21T03:10:34;11.00;99.90
18998;DHT22;9632;51.018;4.284;2024-02-21T03:12:59;10.90;99.90
18998;DHT22;9632;51.018;4.284;2024-02-21T03:15:25;11.00;99.90
18998;DHT22;9632;51.018;4.284;2024-02-21T03:17:50;10.90;99.90
18998;DHT22;9632;51.018;4.284;2024-02-21T03:20:16;11.00;99.90
18998;DHT22;9632;51.018;4.284;2024-02-21T03:22:42;11.00;99.90
18998;DHT22;9632;51.018;4.284;2024-02-21T03:25:11;10.90;99.90
18998;DHT22;9632;51.018;4.284;2024-02-21T03:27:38;11.00;99.90
18998;DHT22;9632;51.018;4.284;2024-02-21T03:30:04;11.00;99.90
18998;DHT22;9632;51.018;4.284;2024-02-21T03:32:30;11.00;99.90
18998;DHT22;9632;51.018;4.284;2024-02-21T03:34:56;11.00;99.90
18998;DHT22;9632;51.018;4.284;2024-02-21T03:37:22;10.90;99.90
18998;DHT22;9632;51.018;4.284;2024-02-21T03:39:47;10.90;99.90
18998;DHT22;9632;51.018;4.284;2024-02-21T03:42:13;11.00;99.90
18998;DHT22;9632;51.018;4.284;2024-02-21T03:44:38;11.00;99.90
18998;DHT22;9632;51.018;4.284;2024-02-21T03:47:04;10.90;99.90
18998;DHT22;9632;51.018;4.284;2024-02-21T03:49:30;10.90;99.90
18998;DHT22;9632;51.018;4.284;2024-02-21T03:51:56;10.80;99.90
18998;DHT22;9632;51.018;4.284;2024-02-21T03:54:22;10.70;99.90
18998;DHT22;9632;51.018;4.284;2024-02-21T03:56:47;10.70;99.90
18998;DHT22;9632;51.018;4.284;2024-02-21T03:59:14;10.80;99.90
18998;DHT22;9632;51.018;4.284;2024-02-21T04:01:40;10.80;99.90
18998;DHT22;9632;51.018;4.284;2024-02-21T04:04:06;10.80;99.90
18998;DHT22;9632;51.018;4.284;2024-02-21T04:06:32;10.90;99.90
18998;DHT22;9632;51.018;4.284;2024-02-21T04:08:57;10.90;99.90
18998;DHT22;9632;51.018;4.284;2024-02-21T04:11:23;10.80;99.90
18998;DHT22;9632;51.018;4.284;2024-02-21T04:13:49;10.90;99.90
18998;DHT22;9632;51.018;4.284;2024-02-21T04:16:18;10.80;99.90
18998;DHT22;9632;51.018;4.284;2024-02-21T04:18:44;10.80;99.90
18998;DHT22;9632;51.018;4.284;2024-02-21T04:21:10;10.80;99.90
18998;DHT22;9632;51.018;4.284;2024-02-21T04:23:36;10.80;99.90
18998;DHT22;9632;51.018;4.284;2024-02-21T04:26:01;10.80;99.90
18998;DHT22;9632;51.018;4.284;2024-02-21T04:28:27;10.80;99.90
18998;DHT22;9632;51.018;4.284;2024-02-21T04:30:53;10.80;99.90
18998;DHT22;9632;51.018;4.284;2024-02-21T04:33:18;10.80;99.90
18998;DHT22;9632;51.018;4.284;2024-02-21T04:35:44;10.80;99.90
18998;DHT22;9632;51.018;4.284;2024-02-21T04:38:09;10.80;99.90
18998;DHT22;9632;51.018;4.284;2024-02-21T04:40:35;10.80;99.90
18998;DHT22;9632;51.018;4.284;2024-02-21T04:43:01;10.80;99.90
18998;DHT22;9632;51.018;4.284;2024-02-21T04:45:27;10.80;99.90
18998;DHT22;9632;51.018;4.284;2024-02-21T04:47:52;10.80;99.90
18998;DHT22;9632;51.018;4.284;2024-02-21T04:50:18;10.80;99.90
18998;DHT22;9632;51.018;4.284;2024-02-21T04:52:43;10.70;99.90
18998;DHT22;9632;51.018;4.284;2024-02-21T04:55:09;10.80;99.90
18998;DHT22;9632;51.018;4.284;2024-02-21T04:57:35;10.80;99.90
18998;DHT22;9632;51.018;4.284;2024-02-21T05:00:01;10.80;99.90
18998;DHT22;9632;51.018;4.284;2024-02-21T05:02:26;10.80;99.90
18998;DHT22;9632;51.018;4.284;2024-02-21T05:04:52;10.80;99.90
18998;DHT22;9632;51.018;4.284;2024-02-21T05:07:18;10.80;99.90
18998;DHT22;9632;51.018;4.284;2024-02-21T05:09:45;10.80;99.90
18998;DHT22;9632;51.018;4.284;2024-02-21T05:12:11;10.80;99.90
18998;DHT22;9632;51.018;4.284;2024-02-21T05:14:37;10.80;99.90
18998;DHT22;9632;51.018;4.284;2024-02-21T05:17:06;10.80;99.90
18998;DHT22;9632;51.018;4.284;2024-02-21T05:19:31;10.80;99.90
18998;DHT22;9632;51.018;4.284;2024-02-21T05:21:58;10.80;99.90
18998;DHT22;9632;51.018;4.284;2024-02-21T05:24:24;10.70;99.90
18998;DHT22;9632;51.018;4.284;2024-02-21T05:26:51;10.80;99.90
18998;DHT22;9632;51.018;4.284;2024-02-21T05:29:16;10.70;99.90
18998;DHT22;9632;51.018;4.284;2024-02-21T05:34:22;10.80;99.90
18998;DHT22;9632;51.018;4.284;2024-02-21T05:36:47;10.70;99.90
18998;DHT22;9632;51.018;4.284;2024-02-21T05:39:15;10.70;99.90
18998;DHT22;9632;51.018;4.284;2024-02-21T05:41:41;10.60;99.90
18998;DHT22;9632;51.018;4.284;2024-02-21T05:44:07;10.70;99.90
18998;DHT22;9632;51.018;4.284;2024-02-21T05:46:33;10.60;99.90
18998;DHT22;9632;51.018;4.284;2024-02-21T05:48:59;10.70;99.90
18998;DHT22;9632;51.018;4.284;2024-02-21T05:51:25;10.70;99.90
18998;DHT22;9632;51.018;4.284;2024-02-21T05:53:50;10.70;99.90
18998;DHT22;9632;51.018;4.284;2024-02-21T05:56:16;10.70;99.90
18998;DHT22;9632;51.018;4.284;2024-02-21T05:58:43;10.70;99.90
18998;DHT22;9632;51.018;4.284;2024-02-21T06:01:09;10.80;99.90
18998;DHT22;9632;51.018;4.284;2024-02-21T06:03:35;10.70;99.90
18998;DHT22;9632;51.018;4.284;2024-02-21T06:06:02;10.80;99.90
18998;DHT22;9632;51.018;4.284;2024-02-21T06:08:28;10.80;99.90
18998;DHT22;9632;51.018;4.284;2024-02-21T06:10:54;10.80;99.90
18998;DHT22;9632;51.018;4.284;2024-02-21T06:13:28;10.80;99.90
18998;DHT22;9632;51.018;4.284;2024-02-21T06:15:54;10.70;99.90
18998;DHT22;9632;51.018;4.284;2024-02-21T06:18:20;10.70;99.90
18998;DHT22;9632;51.018;4.284;2024-02-21T06:20:46;10.70;99.90
18998;DHT22;9632;51.018;4.284;2024-02-21T06:23:16;10.70;99.90
18998;DHT22;9632;51.018;4.284;2024-02-21T06:25:42;10.70;99.90
18998;DHT22;9632;51.018;4.284;2024-02-21T06:28:08;10.70;99.90
18998;DHT22;9632;51.018;4.284;2024-02-21T06:30:34;10.70;99.90
18998;DHT22;9632;51.018;4.284;2024-02-21T06:33:00;10.70;99.90
18998;DHT22;9632;51.018;4.284;2024-02-21T06:35:28;10.70;99.90
18998;DHT22;9632;51.018;4.284;2024-02-21T06:37:54;10.80;99.90
18998;DHT22;9632;51.018;4.284;2024-02-21T06:40:23;10.70;99.90
18998;DHT22;9632;51.018;4.284;2024-02-21T06:42:52;10.70;99.90
18998;DHT22;9632;51.018;4.284;2024-02-21T06:45:17;10.70;99.90
18998;DHT22;9632;51.018;4.284;2024-02-21T06:47:43;10.80;99.90
18998;DHT22;9632;51.018;4.284;2024-02-21T06:50:09;10.80;99.90
18998;DHT22;9632;51.018;4.284;2024-02-21T06:52:36;10.70;99.90
18998;DHT22;9632;51.018;4.284;2024-02-21T06:55:01;10.80;99.90
18998;DHT22;9632;51.018;4.284;2024-02-21T06:57:29;10.80;99.90
18998;DHT22;9632;51.018;4.284;2024-02-21T06:59:54;10.80;99.90
18998;DHT22;9632;51.018;4.284;2024-02-21T07:02:20;10.80;99.90
18998;DHT22;9632;51.018;4.284;2024-02-21T07:04:46;10.90;99.90
18998;DHT22;9632;51.018;4.284;2024-02-21T07:07:11;10.90;99.90
18998;DHT22;9632;51.018;4.284;2024-02-21T07:09:38;10.80;99.90
18998;DHT22;9632;51.018;4.284;2024-02-21T07:12:04;10.80;99.90
18998;DHT22;9632;51.018;4.284;2024-02-21T07:14:31;10.90;99.90
18998;DHT22;9632;51.018;4.284;2024-02-21T07:16:57;10.90;99.90
18998;DHT22;9632;51.018;4.284;2024-02-21T07:19:23;10.90;99.90
18998;DHT22;9632;51.018;4.284;2024-02-21T07:21:48;10.80;99.90
18998;DHT22;9632;51.018;4.284;2024-02-21T07:24:14;10.80;99.90
18998;DHT22;9632;51.018;4.284;2024-02-21T07:26:43;10.80;99.90
18998;DHT22;9632;51.018;4.284;2024-02-21T07:29:09;10.80;99.90
18998;DHT22;9632;51.018;4.284;2024-02-21T07:31:44;10.90;99.90
18998;DHT22;9632;51.018;4.284;2024-02-21T07:34:11;10.90;99.90
18998;DHT22;9632;51.018;4.284;2024-02-21T07:36:37;10.90;99.90
18998;DHT22;9632;51.018;4.284;2024-02-21T07:39:04;10.90;99.90
18998;DHT22;9632;51.018;4.284;2024-02-21T07:41:30;10.90;99.90
18998;DHT22;9632;51.018;4.284;2024-02-21T07:43:56;10.90;99.90
18998;DHT22;9632;51.018;4.284;2024-02-21T07:46:22;10.90;99.90
18998;DHT22;9632;51.018;4.284;2024-02-21T07:48:48;11.00;99.90
18998;DHT22;9632;51.018;4.284;2024-02-21T07:51:13;11.00;99.90
18998;DHT22;9632;51.018;4.284;2024-02-21T07:53:39;11.00;99.90
18998;DHT22;9632;51.018;4.284;2024-02-21T07:56:13;11.00;99.90
18998;DHT22;9632;51.018;4.284;2024-02-21T07:58:41;11.00;99.90
18998;DHT22;9632;51.018;4.284;2024-02-21T08:01:07;11.00;99.90
18998;DHT22;9632;51.018;4.284;2024-02-21T08:03:33;11.00;99.90
18998;DHT22;9632;51.018;4.284;2024-02-21T08:05:58;11.00;99.90
18998;DHT22;9632;51.018;4.284;2024-02-21T08:08:24;11.00;99.90
18998;DHT22;9632;51.018;4.284;2024-02-21T08:10:50;11.00;99.90
18998;DHT22;9632;51.018;4.284;2024-02-21T08:13:16;11.00;99.90
18998;DHT22;9632;51.018;4.284;2024-02-21T08:15:42;11.00;99.90
18998;DHT22;9632;51.018;4.284;2024-02-21T08:18:08;11.00;99.90
18998;DHT22;9632;51.018;4.284;2024-02-21T08:20:34;11.00;99.90
18998;DHT22;9632;51.018;4.284;2024-02-21T08:23:00;11.00;99.90
18998;DHT22;9632;51.018;4.284;2024-02-21T08:25:25;10.90;99.90
18998;DHT22;9632;51.018;4.284;2024-02-21T08:27:51;10.90;99.90
18998;DHT22;9632;51.018;4.284;2024-02-21T08:30:19;11.00;99.90
18998;DHT22;9632;51.018;4.284;2024-02-21T08:32:57;11.00;99.90
18998;DHT22;9632;51.018;4.284;2024-02-21T08:35:23;11.00;99.90
18998;DHT22;9632;51.018;4.284;2024-02-21T08:37:49;11.00;99.90
18998;DHT22;9632;51.018;4.284;2024-02-21T08:40:15;11.10;99.90
18998;DHT22;9632;51.018;4.284;2024-02-21T08:42:45;11.10;99.90
18998;DHT22;9632;51.018;4.284;2024-02-21T08:45:10;11.10;99.90
18998;DHT22;9632;51.018;4.284;2024-02-21T08:47:39;11.10;99.90
18998;DHT22;9632;51.018;4.284;2024-02-21T08:50:05;11.10;99.90
18998;DHT22;9632;51.018;4.284;2024-02-21T08:52:31;11.10;99.90
18998;DHT22;9632;51.018;4.284;2024-02-21T08:54:57;11.00;99.90
18998;DHT22;9632;51.018;4.284;2024-02-21T08:57:22;11.00;99.90
18998;DHT22;9632;51.018;4.284;2024-02-21T08:59:48;11.00;99.90
18998;DHT22;9632;51.018;4.284;2024-02-21T09:02:14;10.90;99.90
18998;DHT22;9632;51.018;4.284;2024-02-21T09:04:43;10.90;99.90
18998;DHT22;9632;51.018;4.284;2024-02-21T09:07:11;10.90;99.90
18998;DHT22;9632;51.018;4.284;2024-02-21T09:09:37;10.90;99.90
18998;DHT22;9632;51.018;4.284;2024-02-21T09:12:08;11.00;99.90
18998;DHT22;9632;51.018;4.284;2024-02-21T09:14:36;11.00;99.90
18998;DHT22;9632;51.018;4.284;2024-02-21T09:17:03;11.10;99.90
18998;DHT22;9632;51.018;4.284;2024-02-21T09:19:28;11.10;99.90
18998;DHT22;9632;51.018;4.284;2024-02-21T09:21:55;11.10;99.90
18998;DHT22;9632;51.018;4.284;2024-02-21T09:24:20;11.10;99.90
18998;DHT22;9632;51.018;4.284;2024-02-21T09:26:46;11.10;99.90
18998;DHT22;9632;51.018;4.284;2024-02-21T09:29:12;11.20;99.90
18998;DHT22;9632;51.018;4.284;2024-02-21T09:35:09;11.30;99.90
18998;DHT22;9632;51.018;4.284;2024-02-21T09:41:00;11.30;99.90
18998;DHT22;9632;51.018;4.284;2024-02-21T09:47:05;11.30;99.90
18998;DHT22;9632;51.018;4.284;2024-02-21T09:56:20;11.40;99.90
18998;DHT22;9632;51.018;4.284;2024-02-21T10:02:17;11.50;99.90
18998;DHT22;9632;51.018;4.284;2024-02-21T10:04:44;11.50;99.90
18998;DHT22;9632;51.018;4.284;2024-02-21T10:07:10;11.50;99.90
18998;DHT22;9632;51.018;4.284;2024-02-21T10:16:36;11.60;99.90
18998;DHT22;9632;51.018;4.284;2024-02-21T10:19:02;11.60;99.90
18998;DHT22;9632;51.018;4.284;2024-02-21T10:28:17;11.70;99.90
18998;DHT22;9632;51.018;4.284;2024-02-21T10:30:50;11.50;99.90
18998;DHT22;9632;51.018;4.284;2024-02-21T10:33:17;11.50;99.90
18998;DHT22;9632;51.018;4.284;2024-02-21T10:35:47;11.50;99.90
18998;DHT22;9632;51.018;4.284;2024-02-21T10:38:45;11.60;99.90
18998;DHT22;9632;51.018;4.284;2024-02-21T10:41:14;11.70;99.90
18998;DHT22;9632;51.018;4.284;2024-02-21T10:43:41;11.60;99.90
18998;DHT22;9632;51.018;4.284;2024-02-21T10:46:10;11.60;99.90
18998;DHT22;9632;51.018;4.284;2024-02-21T10:49:15;11.60;99.90
18998;DHT22;9632;51.018;4.284;2024-02-21T10:51:44;11.60;99.90
18998;DHT22;9632;51.018;4.284;2024-02-21T10:57:06;11.60;99.90
18998;DHT22;9632;51.018;4.284;2024-02-21T10:59:36;11.70;99.90
18998;DHT22;9632;51.018;4.284;2024-02-21T11:02:11;11.60;99.90
18998;DHT22;9632;51.018;4.284;2024-02-21T11:04:37;11.70;99.90
18998;DHT22;9632;51.018;4.284;2024-02-21T11:10:23;11.70;99.90
18998;DHT22;9632;51.018;4.284;2024-02-21T11:12:52;11.80;99.90
18998;DHT22;9632;51.018;4.284;2024-02-21T11:15:28;11.90;99.90
18998;DHT22;9632;51.018;4.284;2024-02-21T11:17:55;11.90;99.90
18998;DHT22;9632;51.018;4.284;2024-02-21T11:20:21;11.90;99.90
18998;DHT22;9632;51.018;4.284;2024-02-21T11:23:13;12.00;99.90
18998;DHT22;9632;51.018;4.284;2024-02-21T11:26:20;12.00;99.90
18998;DHT22;9632;51.018;4.284;2024-02-21T11:29:05;12.10;99.90
18998;DHT22;9632;51.018;4.284;2024-02-21T11:31:41;12.00;99.90
18998;DHT22;9632;51.018;4.284;2024-02-21T11:34:10;12.00;99.90
18998;DHT22;9632;51.018;4.284;2024-02-21T11:36:46;12.00;99.90
18998;DHT22;9632;51.018;4.284;2024-02-21T11:39:11;12.00;99.90
18998;DHT22;9632;51.018;4.284;2024-02-21T11:41:37;12.10;99.90
18998;DHT22;9632;51.018;4.284;2024-02-21T11:44:03;12.00;99.90
18998;DHT22;9632;51.018;4.284;2024-02-21T11:46:29;12.00;99.90
18998;DHT22;9632;51.018;4.284;2024-02-21T11:48:55;12.00;99.90
18998;DHT22;9632;51.018;4.284;2024-02-21T11:51:26;12.10;99.90
18998;DHT22;9632;51.018;4.284;2024-02-21T11:53:53;12.20;99.90
18998;DHT22;9632;51.018;4.284;2024-02-21T11:56:19;12.20;99.90
18998;DHT22;9632;51.018;4.284;2024-02-21T11:58:49;12.20;99.90
18998;DHT22;9632;51.018;4.284;2024-02-21T12:01:15;12.30;99.90
18998;DHT22;9632;51.018;4.284;2024-02-21T12:03:42;12.30;99.90
18998;DHT22;9632;51.018;4.284;2024-02-21T12:06:15;12.20;99.90
18998;DHT22;9632;51.018;4.284;2024-02-21T12:08:45;12.30;99.90
18998;DHT22;9632;51.018;4.284;2024-02-21T12:11:22;12.30;99.90
18998;DHT22;9632;51.018;4.284;2024-02-21T12:14:04;12.40;99.90
18998;DHT22;9632;51.018;4.284;2024-02-21T12:16:31;12.30;99.90
18998;DHT22;9632;51.018;4.284;2024-02-21T12:18:58;12.30;99.90
18998;DHT22;9632;51.018;4.284;2024-02-21T12:21:31;12.30;99.90
18998;DHT22;9632;51.018;4.284;2024-02-21T12:23:58;12.30;99.90
18998;DHT22;9632;51.018;4.284;2024-02-21T12:26:24;12.30;99.90
18998;DHT22;9632;51.018;4.284;2024-02-21T12:28:50;12.20;99.90
18998;DHT22;9632;51.018;4.284;2024-02-21T12:31:16;12.20;99.90
18998;DHT22;9632;51.018;4.284;2024-02-21T12:33:43;12.20;99.90
18998;DHT22;9632;51.018;4.284;2024-02-21T12:36:08;12.10;99.90
18998;DHT22;9632;51.018;4.284;2024-02-21T12:38:35;11.90;99.90
18998;DHT22;9632;51.018;4.284;2024-02-21T12:41:01;11.90;99.90
18998;DHT22;9632;51.018;4.284;2024-02-21T12:43:27;12.00;99.90
18998;DHT22;9632;51.018;4.284;2024-02-21T12:45:53;12.00;99.90
18998;DHT22;9632;51.018;4.284;2024-02-21T12:48:19;12.10;99.90
18998;DHT22;9632;51.018;4.284;2024-02-21T12:50:51;12.10;99.90
18998;DHT22;9632;51.018;4.284;2024-02-21T12:53:18;12.10;99.90
18998;DHT22;9632;51.018;4.284;2024-02-21T12:55:47;12.00;99.90
18998;DHT22;9632;51.018;4.284;2024-02-21T12:58:14;12.10;99.90
18998;DHT22;9632;51.018;4.284;2024-02-21T13:00:40;12.20;99.90
18998;DHT22;9632;51.018;4.284;2024-02-21T13:03:06;12.20;99.90
18998;DHT22;9632;51.018;4.284;2024-02-21T13:05:32;12.30;99.90
18998;DHT22;9632;51.018;4.284;2024-02-21T13:07:58;12.40;99.90
18998;DHT22;9632;51.018;4.284;2024-02-21T13:10:24;12.40;99.90
18998;DHT22;9632;51.018;4.284;2024-02-21T13:12:50;12.40;99.90
18998;DHT22;9632;51.018;4.284;2024-02-21T13:15:16;12.50;99.90
18998;DHT22;9632;51.018;4.284;2024-02-21T13:17:44;12.50;99.90
18998;DHT22;9632;51.018;4.284;2024-02-21T13:20:10;12.50;99.90
18998;DHT22;9632;51.018;4.284;2024-02-21T13:22:36;12.50;99.90
18998;DHT22;9632;51.018;4.284;2024-02-21T13:25:03;12.60;99.90
18998;DHT22;9632;51.018;4.284;2024-02-21T13:27:29;12.60;99.90
18998;DHT22;9632;51.018;4.284;2024-02-21T13:29:54;12.60;99.90
18998;DHT22;9632;51.018;4.284;2024-02-21T13:32:20;12.70;99.90
18998;DHT22;9632;51.018;4.284;2024-02-21T13:34:46;12.70;99.90
18998;DHT22;9632;51.018;4.284;2024-02-21T13:37:11;12.80;99.90
18998;DHT22;9632;51.018;4.284;2024-02-21T13:39:39;12.70;99.90
18998;DHT22;9632;51.018;4.284;2024-02-21T13:42:05;12.70;99.90
18998;DHT22;9632;51.018;4.284;2024-02-21T13:44:31;12.70;99.90
18998;DHT22;9632;51.018;4.284;2024-02-21T13:46:57;12.60;99.90
18998;DHT22;9632;51.018;4.284;2024-02-21T13:49:23;12.60;99.90
18998;DHT22;9632;51.018;4.284;2024-02-21T13:51:49;12.60;99.90
18998;DHT22;9632;51.018;4.284;2024-02-21T13:54:14;12.50;99.90
18998;DHT22;9632;51.018;4.284;2024-02-21T13:56:42;12.50;99.90
18998;DHT22;9632;51.018;4.284;2024-02-21T13:59:08;12.50;99.90
18998;DHT22;9632;51.018;4.284;2024-02-21T14:01:34;12.50;99.90
18998;DHT22;9632;51.018;4.284;2024-02-21T14:04:01;12.50;99.90
18998;DHT22;9632;51.018;4.284;2024-02-21T14:06:27;12.50;99.90
18998;DHT22;9632;51.018;4.284;2024-02-21T14:08:53;12.40;99.90
18998;DHT22;9632;51.018;4.284;2024-02-21T14:11:18;12.30;99.90
18998;DHT22;9632;51.018;4.284;2024-02-21T14:13:44;12.40;99.90
18998;DHT22;9632;51.018;4.284;2024-02-21T14:16:10;12.30;99.90
18998;DHT22;9632;51.018;4.284;2024-02-21T14:18:39;12.20;99.90
18998;DHT22;9632;51.018;4.284;2024-02-21T14:21:07;12.10;99.90
18998;DHT22;9632;51.018;4.284;2024-02-21T14:23:32;12.10;99.90
18998;DHT22;9632;51.018;4.284;2024-02-21T14:25:59;12.10;99.90
18998;DHT22;9632;51.018;4.284;2024-02-21T14:28:25;12.10;99.90
18998;DHT22;9632;51.018;4.284;2024-02-21T14:30:50;12.00;99.90
18998;DHT22;9632;51.018;4.284;2024-02-21T14:33:19;12.00;99.90
18998;DHT22;9632;51.018;4.284;2024-02-21T14:35:45;11.90;99.90
18998;DHT22;9632;51.018;4.284;2024-02-21T14:38:10;11.80;99.90
18998;DHT22;9632;51.018;4.284;2024-02-21T14:40:36;11.80;99.90
18998;DHT22;9632;51.018;4.284;2024-02-21T14:43:01;11.80;99.90
18998;DHT22;9632;51.018;4.284;2024-02-21T14:45:27;11.80;99.90
18998;DHT22;9632;51.018;4.284;2024-02-21T14:47:53;11.80;99.90
18998;DHT22;9632;51.018;4.284;2024-02-21T14:50:18;11.80;99.90
18998;DHT22;9632;51.018;4.284;2024-02-21T14:52:44;11.80;99.90
18998;DHT22;9632;51.018;4.284;2024-02-21T14:55:10;11.70;99.90
18998;DHT22;9632;51.018;4.284;2024-02-21T14:57:37;11.70;99.90
18998;DHT22;9632;51.018;4.284;2024-02-21T15:00:07;11.70;99.90
18998;DHT22;9632;51.018;4.284;2024-02-21T15:02:33;11.60;99.90
18998;DHT22;9632;51.018;4.284;2024-02-21T15:05:00;11.50;99.90
18998;DHT22;9632;51.018;4.284;2024-02-21T15:07:26;11.50;99.90
18998;DHT22;9632;51.018;4.284;2024-02-21T15:09:52;11.50;99.90
18998;DHT22;9632;51.018;4.284;2024-02-21T15:12:18;11.40;99.90
18998;DHT22;9632;51.018;4.284;2024-02-21T15:14:44;11.40;99.90
18998;DHT22;9632;51.018;4.284;2024-02-21T15:17:13;11.40;99.90
18998;DHT22;9632;51.018;4.284;2024-02-21T15:19:39;11.30;99.90
18998;DHT22;9632;51.018;4.284;2024-02-21T15:22:11;11.30;99.90
18998;DHT22;9632;51.018;4.284;2024-02-21T15:24:40;11.30;99.90
18998;DHT22;9632;51.018;4.284;2024-02-21T15:27:06;11.30;99.90
18998;DHT22;9632;51.018;4.284;2024-02-21T15:29:34;11.30;99.90
18998;DHT22;9632;51.018;4.284;2024-02-21T15:32:01;11.30;99.90
18998;DHT22;9632;51.018;4.284;2024-02-21T15:34:27;11.20;99.90
18998;DHT22;9632;51.018;4.284;2024-02-21T15:36:53;11.20;99.90
18998;DHT22;9632;51.018;4.284;2024-02-21T15:39:19;11.10;99.90
18998;DHT22;9632;51.018;4.284;2024-02-21T15:41:44;11.20;99.90
18998;DHT22;9632;51.018;4.284;2024-02-21T15:44:10;11.10;99.90
18998;DHT22;9632;51.018;4.284;2024-02-21T15:46:35;11.20;99.90
18998;DHT22;9632;51.018;4.284;2024-02-21T15:49:03;11.10;99.90
18998;DHT22;9632;51.018;4.284;2024-02-21T15:51:28;11.10;99.90
18998;DHT22;9632;51.018;4.284;2024-02-21T15:53:58;11.10;99.90
18998;DHT22;9632;51.018;4.284;2024-02-21T15:56:24;11.00;99.90
18998;DHT22;9632;51.018;4.284;2024-02-21T15:58:50;11.10;99.90
18998;DHT22;9632;51.018;4.284;2024-02-21T16:01:19;11.10;99.90
18998;DHT22;9632;51.018;4.284;2024-02-21T16:03:45;11.20;99.90
18998;DHT22;9632;51.018;4.284;2024-02-21T16:06:11;11.10;99.90
18998;DHT22;9632;51.018;4.284;2024-02-21T16:08:36;11.10;99.90
18998;DHT22;9632;51.018;4.284;2024-02-21T16:11:06;11.10;99.90
18998;DHT22;9632;51.018;4.284;2024-02-21T16:13:34;11.20;99.90
18998;DHT22;9632;51.018;4.284;2024-02-21T16:16:00;11.10;99.90
18998;DHT22;9632;51.018;4.284;2024-02-21T16:18:26;11.10;99.90
18998;DHT22;9632;51.018;4.284;2024-02-21T16:20:51;11.10;99.90
18998;DHT22;9632;51.018;4.284;2024-02-21T16:26:43;11.00;99.90
18998;DHT22;9632;51.018;4.284;2024-02-21T16:32:27;11.00;99.90